Time,TemperatureF,DewpointF,PressureIn,WindDirection,WindDirectionDegrees,WindSpeedMPH,WindSpeedGustMPH,Humidity,HourlyPrecipIn,Conditions,Clouds,dailyrainin,SoftwareType,DateUTC
2013-02-26 00:07:00,24.2,9.0,30.13,WNW,283,7.0,14.0,52,0.00,,,0.27,weatherlink.com 1.10,2013-02-26 07:07:00,
2013-02-26 00:22:00,24.4,9.0,30.12,WNW,284,5.0,15.0,51,0.00,,,0.00,weatherlink.com 1.10,2013-02-26 07:22:00,
2013-02-26 00:37:00,24.5,9.0,30.12,West,277,11.0,17.0,52,0.00,,,0.00,weatherlink.com 1.10,2013-02-26 07:37:00,
2013-02-26 00:52:00,24.5,9.0,30.12,SW,231,9.0,26.0,51,0.00,,,0.00,weatherlink.com 1.10,2013-02-26 07:52:00,
2013-02-26 01:07:00,23.9,8.0,30.10,West,265,6.0,24.0,52,0.00,,,0.00,weatherlink.com 1.10,2013-02-26 08:07:00,
2013-02-26 01:22:00,23.2,8.0,30.10,WNW,285,7.0,28.0,53,0.00,,,0.00,weatherlink.com 1.10,2013-02-26 08:22:00,
2013-02-26 01:37:00,22.9,8.0,30.10,WSW,242,11.0,21.0,54,0.00,,,0.00,weatherlink.com 1.10,2013-02-26 08:37:00,
2013-02-26 01:52:00,22.6,8.0,30.10,SW,232,18.0,25.0,54,0.00,,,0.00,weatherlink.com 1.10,2013-02-26 08:52:00,
2013-02-26 02:07:00,22.7,8.0,30.09,WSW,245,5.0,22.0,54,0.00,,,0.00,weatherlink.com 1.10,2013-02-26 09:07:00,
2013-02-26 02:22:00,22.7,8.0,30.09,West,270,11.0,14.0,54,0.00,,,0.00,weatherlink.com 1.10,2013-02-26 09:22:00,
2013-02-26 02:37:00,22.6,9.0,30.08,WNW,291,3.0,23.0,55,0.00,,,0.00,weatherlink.com 1.10,2013-02-26 09:37:00,
2013-02-26 02:52:00,22.5,9.0,30.08,West,262,10.0,21.0,57,0.00,,,0.00,weatherlink.com 1.10,2013-02-26 09:52:00,
2013-02-26 03:07:00,22.3,9.0,30.07,West,265,13.0,19.0,58,0.00,,,0.00,weatherlink.com 1.10,2013-02-26 10:07:00,
2013-02-26 03:22:00,22.2,9.0,30.07,WSW,240,9.0,15.0,58,0.00,,,0.00,weatherlink.com 1.10,2013-02-26 10:22:00,
2013-02-26 03:37:00,22.1,10.0,30.07,WSW,257,6.0,18.0,60,0.00,,,0.00,weatherlink.com 1.10,2013-02-26 10:37:00,
2013-02-26 03:52:00,22.0,10.0,30.07,West,260,5.0,15.0,59,0.00,,,0.00,weatherlink.com 1.10,2013-02-26 10:52:00,
2013-02-26 04:07:00,21.7,10.0,30.06,SW,233,3.0,14.0,62,0.00,,,0.00,weatherlink.com 1.10,2013-02-26 11:07:00,
2013-02-26 04:22:00,21.5,10.0,30.05,West,277,5.0,13.0,61,0.00,,,0.00,weatherlink.com 1.10,2013-02-26 11:22:00,
2013-02-26 04:37:00,21.4,10.0,30.04,West,263,3.0,12.0,61,0.00,,,0.00,weatherlink.com 1.10,2013-02-26 11:37:00,
2013-02-26 04:52:00,21.2,10.0,30.04,WNW,292,2.0,8.0,62,0.00,,,0.00,weatherlink.com 1.10,2013-02-26 11:52:00,
2013-02-26 05:07:00,21.2,10.0,30.04,WNW,286,6.0,10.0,61,0.00,,,0.00,weatherlink.com 1.10,2013-02-26 12:07:00,
2013-02-26 05:22:00,21.1,9.0,30.05,WNW,287,4.0,8.0,61,0.00,,,0.00,weatherlink.com 1.10,2013-02-26 12:22:00,
2013-02-26 05:37:00,20.9,9.0,30.05,WNW,291,7.0,7.0,61,0.00,,,0.00,weatherlink.com 1.10,2013-02-26 12:37:00,
2013-02-26 05:52:00,20.8,9.0,30.05,WNW,301,0.0,11.0,61,0.00,,,0.00,weatherlink.com 1.10,2013-02-26 12:52:00,
2013-02-26 06:07:00,20.6,13.0,30.05,NW,312,3.0,5.0,72,0.00,,,0.00,weatherlink.com 1.10,2013-02-26 13:07:00,
2013-02-26 06:22:00,20.0,13.0,30.05,NW,309,2.0,6.0,74,0.00,,,0.00,weatherlink.com 1.10,2013-02-26 13:22:00,
2013-02-26 06:38:00,19.6,14.0,30.05,NW,314,1.0,6.0,79,0.00,,,0.00,weatherlink.com 1.10,2013-02-26 13:38:00,
2013-02-26 06:53:00,19.3,14.0,30.04,NW,315,0.0,3.0,81,0.00,,,0.00,weatherlink.com 1.10,2013-02-26 13:53:00,
2013-02-26 07:23:00,19.1,15.0,30.04,NW,315,0.0,2.0,84,0.00,,,0.00,weatherlink.com 1.10,2013-02-26 14:23:00,
2013-02-26 07:38:00,19.2,15.0,30.04,NW,315,0.0,1.0,85,0.00,,,0.00,weatherlink.com 1.10,2013-02-26 14:38:00,
2013-02-26 07:53:00,19.3,16.0,30.04,NW,316,0.0,3.0,86,0.00,,,0.00,weatherlink.com 1.10,2013-02-26 14:53:00,
2013-02-26 08:08:00,19.4,18.0,30.04,NW,316,1.0,1.0,94,0.00,,,0.00,weatherlink.com 1.10,2013-02-26 15:08:00,
2013-02-26 08:23:00,19.7,16.0,30.04,NW,316,0.0,0.0,86,0.00,,,0.00,weatherlink.com 1.10,2013-02-26 15:23:00,
2013-02-26 08:38:00,20.0,17.0,30.04,NNE,30,0.0,7.0,86,0.00,,,0.00,weatherlink.com 1.10,2013-02-26 15:38:00,
2013-02-26 08:53:00,20.0,16.0,30.04,East,79,2.0,4.0,84,0.00,,,0.00,weatherlink.com 1.10,2013-02-26 15:53:00,
2013-02-26 09:08:00,20.0,16.0,30.04,NE,45,2.0,5.0,83,0.00,,,0.00,weatherlink.com 1.10,2013-02-26 16:08:00,
2013-02-26 09:23:00,19.9,16.0,30.04,ENE,64,0.0,3.0,83,0.00,,,0.00,weatherlink.com 1.10,2013-02-26 16:23:00,
2013-02-26 09:38:00,20.4,16.0,30.04,ESE,115,3.0,3.0,82,0.00,,,0.00,weatherlink.com 1.10,2013-02-26 16:38:00,
2013-02-26 09:53:00,20.7,16.0,30.04,ESE,115,0.0,4.0,81,0.00,,,0.00,weatherlink.com 1.10,2013-02-26 16:53:00,
2013-02-26 10:08:00,20.8,16.0,30.04,East,96,0.0,3.0,80,0.00,,,0.00,weatherlink.com 1.10,2013-02-26 17:08:00,
2013-02-26 10:23:00,21.1,16.0,30.04,East,87,0.0,5.0,79,0.00,,,0.00,weatherlink.com 1.10,2013-02-26 17:23:00,
2013-02-26 10:38:00,21.8,16.0,30.04,East,87,0.0,2.0,79,0.00,,,0.00,weatherlink.com 1.10,2013-02-26 17:38:00,
2013-02-26 10:53:00,22.2,16.0,30.04,NE,55,0.0,4.0,78,0.00,,,0.00,weatherlink.com 1.10,2013-02-26 17:53:00,
2013-02-26 11:08:00,22.4,17.0,30.04,ENE,69,0.0,2.0,78,0.00,,,0.00,weatherlink.com 1.10,2013-02-26 18:08:00,
2013-02-26 11:23:00,22.5,17.0,30.04,NE,53,1.0,4.0,79,0.00,,,0.00,weatherlink.com 1.10,2013-02-26 18:23:00,
2013-02-26 11:38:00,22.1,17.0,30.05,NE,55,1.0,4.0,80,0.00,,,0.00,weatherlink.com 1.10,2013-02-26 18:38:00,
2013-02-26 11:53:00,22.4,17.0,30.05,ENE,57,3.0,4.0,80,0.00,,,0.00,weatherlink.com 1.10,2013-02-26 18:53:00,
2013-02-26 12:08:00,22.2,17.0,30.05,ENE,69,0.0,5.0,80,0.00,,,0.00,weatherlink.com 1.10,2013-02-26 19:08:00,
2013-02-26 12:23:00,22.5,17.0,30.05,NE,52,5.0,5.0,79,0.00,,,0.00,weatherlink.com 1.10,2013-02-26 19:23:00,
2013-02-26 12:38:00,24.0,17.0,30.05,NE,56,4.0,5.0,76,0.00,,,0.00,weatherlink.com 1.10,2013-02-26 19:38:00,
2013-02-26 12:53:00,24.4,18.0,30.05,ENE,64,2.0,4.0,75,0.00,,,0.00,weatherlink.com 1.10,2013-02-26 19:53:00,
2013-02-26 13:08:00,24.9,18.0,30.05,ENE,69,4.0,4.0,74,0.00,,,0.00,weatherlink.com 1.10,2013-02-26 20:08:00,
2013-02-26 13:23:00,24.7,18.0,30.06,ENE,65,3.0,7.0,76,0.00,,,0.00,weatherlink.com 1.10,2013-02-26 20:23:00,
2013-02-26 13:38:00,21.6,16.0,30.07,NE,42,6.0,10.0,79,0.00,,,0.00,weatherlink.com 1.10,2013-02-26 20:38:00,
2013-02-26 13:53:00,20.2,16.0,30.08,NNE,13,1.0,9.0,82,0.00,,,0.00,weatherlink.com 1.10,2013-02-26 20:53:00,
2013-02-26 14:08:00,19.8,15.0,30.09,NE,38,1.0,6.0,82,0.00,,,0.00,weatherlink.com 1.10,2013-02-26 21:08:00,
2013-02-26 14:23:00,19.8,15.0,30.10,ENE,57,1.0,6.0,81,0.00,,,0.00,weatherlink.com 1.10,2013-02-26 21:23:00,
2013-02-26 14:38:00,19.6,15.0,30.12,ENE,60,2.0,6.0,82,0.00,,,0.00,weatherlink.com 1.10,2013-02-26 21:38:00,
2013-02-26 14:53:00,19.5,15.0,30.13,NE,44,2.0,8.0,83,0.00,,,0.00,weatherlink.com 1.10,2013-02-26 21:53:00,
2013-02-26 15:08:00,19.3,15.0,30.13,North,355,2.0,8.0,83,0.00,,,0.00,weatherlink.com 1.10,2013-02-26 22:08:00,
2013-02-26 15:23:00,18.9,15.0,30.15,ENE,68,4.0,7.0,84,0.00,,,0.00,weatherlink.com 1.10,2013-02-26 22:23:00,
2013-02-26 15:38:00,18.8,15.0,30.16,ENE,66,0.0,5.0,84,0.00,,,0.00,weatherlink.com 1.10,2013-02-26 22:38:00,
2013-02-26 15:53:00,18.7,15.0,30.18,ENE,57,3.0,4.0,84,0.00,,,0.00,weatherlink.com 1.10,2013-02-26 22:53:00,
2013-02-26 16:08:00,18.5,15.0,30.19,ENE,57,0.0,1.0,84,0.00,,,0.00,weatherlink.com 1.10,2013-02-26 23:08:00,
2013-02-26 16:23:00,18.4,15.0,30.20,NNW,345,0.0,5.0,85,0.00,,,0.00,weatherlink.com 1.10,2013-02-26 23:23:00,
2013-02-26 16:38:00,18.0,14.0,30.21,North,360,2.0,7.0,84,0.00,,,0.00,weatherlink.com 1.10,2013-02-26 23:38:00,
2013-02-26 16:53:00,17.7,14.0,30.22,NW,306,0.0,7.0,85,0.00,,,0.00,weatherlink.com 1.10,2013-02-26 23:53:00,
2013-02-26 17:08:00,17.3,14.0,30.23,NNW,346,0.0,4.0,85,0.00,,,0.00,weatherlink.com 1.10,2013-02-27 00:08:00,
2013-02-26 17:24:00,17.1,14.0,30.24,NNW,346,0.0,2.0,86,0.00,,,0.00,weatherlink.com 1.10,2013-02-27 00:24:00,
2013-02-26 17:38:00,17.1,14.0,30.25,NNW,346,1.0,3.0,86,0.00,,,0.00,weatherlink.com 1.10,2013-02-27 00:38:00,
2013-02-26 17:54:00,16.8,13.0,30.26,NNW,346,0.0,4.0,86,0.00,,,0.00,weatherlink.com 1.10,2013-02-27 00:54:00,
2013-02-26 18:09:00,16.4,13.0,30.28,NNW,346,0.0,4.0,87,0.00,,,0.00,weatherlink.com 1.10,2013-02-27 01:09:00,
2013-02-26 18:24:00,15.8,13.0,30.29,NNW,346,0.0,2.0,87,0.00,,,0.00,weatherlink.com 1.10,2013-02-27 01:24:00,
2013-02-26 18:39:00,16.3,13.0,30.30,NNW,346,0.0,1.0,86,0.00,,,0.00,weatherlink.com 1.10,2013-02-27 01:39:00,
2013-02-26 18:54:00,16.1,13.0,30.31,NNW,346,0.0,1.0,86,0.00,,,0.00,weatherlink.com 1.10,2013-02-27 01:54:00,
2013-02-26 19:09:00,16.0,13.0,30.32,NNW,346,0.0,0.0,86,0.00,,,0.00,weatherlink.com 1.10,2013-02-27 02:09:00,
2013-02-26 19:24:00,15.9,13.0,30.33,West,259,1.0,4.0,86,0.00,,,0.00,weatherlink.com 1.10,2013-02-27 02:24:00,
2013-02-26 19:39:00,15.8,12.0,30.33,West,259,0.0,2.0,86,0.00,,,0.00,weatherlink.com 1.10,2013-02-27 02:39:00,
2013-02-26 19:54:00,15.7,12.0,30.34,West,259,3.0,3.0,86,0.00,,,0.00,weatherlink.com 1.10,2013-02-27 02:54:00,
2013-02-26 20:09:00,15.6,12.0,30.36,West,278,0.0,5.0,85,0.00,,,0.00,weatherlink.com 1.10,2013-02-27 03:09:00,
2013-02-26 20:24:00,15.6,12.0,30.36,West,278,0.0,2.0,85,0.00,,,0.00,weatherlink.com 1.10,2013-02-27 03:24:00,
2013-02-26 20:39:00,15.5,12.0,30.37,West,278,0.0,0.0,85,0.00,,,0.00,weatherlink.com 1.10,2013-02-27 03:39:00,
2013-02-26 20:54:00,15.3,12.0,30.38,West,278,0.0,0.0,85,0.00,,,0.00,weatherlink.com 1.10,2013-02-27 03:54:00,
2013-02-26 21:09:00,15.1,11.0,30.39,West,278,0.0,0.0,85,0.00,,,0.00,weatherlink.com 1.10,2013-02-27 04:09:00,
2013-02-26 21:24:00,14.9,11.0,30.39,West,278,0.0,0.0,85,0.00,,,0.00,weatherlink.com 1.10,2013-02-27 04:24:00,
2013-02-26 21:39:00,14.6,11.0,30.40,West,278,2.0,3.0,85,0.00,,,0.00,weatherlink.com 1.10,2013-02-27 04:39:00,
2013-02-26 21:54:00,14.3,11.0,30.41,West,278,2.0,2.0,85,0.00,,,0.00,weatherlink.com 1.10,2013-02-27 04:54:00,
2013-02-26 22:09:00,14.1,10.0,30.41,West,278,0.0,2.0,85,0.00,,,0.00,weatherlink.com 1.10,2013-02-27 05:09:00,
2013-02-26 22:24:00,13.7,10.0,30.42,West,278,0.0,2.0,85,0.00,,,0.00,weatherlink.com 1.10,2013-02-27 05:24:00,
2013-02-26 22:39:00,13.5,10.0,30.43,West,278,0.0,3.0,85,0.00,,,0.00,weatherlink.com 1.10,2013-02-27 05:39:00,
2013-02-26 22:54:00,13.2,10.0,30.43,West,278,1.0,2.0,85,0.00,,,0.00,weatherlink.com 1.10,2013-02-27 05:54:00,
2013-02-26 23:09:00,12.8,9.0,30.43,West,278,4.0,4.0,84,0.00,,,0.00,weatherlink.com 1.10,2013-02-27 06:09:00,
2013-02-26 23:24:00,12.4,9.0,30.44,West,278,0.0,2.0,85,0.00,,,0.00,weatherlink.com 1.10,2013-02-27 06:24:00,
2013-02-26 23:41:00,12.2,9.0,30.45,West,278,0.0,3.0,85,0.00,,,0.00,weatherlink.com 1.10,2013-02-27 06:41:00,
2013-02-26 23:54:00,12.0,8.0,30.45,West,278,1.0,4.0,84,0.00,,,0.00,weatherlink.com 1.10,2013-02-27 06:54:00,